Meridian, Pennsylvania
Current Conditions -  °F | °C
As of 1:55 PM on Friday 21 Nov 2014 (Local Time) from KBTP Reporting Station
Broken Clouds Broken Clouds  
Wind Chill: 18°   Ceiling: 4000
Heat Index: 25°   Visibility: 10mi
Dew Point: 10°   Wind: 6mph
Humidity: 54%   Direction: 340°NNW
Pressure: 30.45"   Gusts: NA
Location:  40.9096°N, 79.9361°W
Report Text: KBTP 211855Z AUTO 34005KT 10SM BKN040 BKN048 M04/M12 A3045 RMK AO1
Loading
Personal Weather Stations






























Interactive Weather Map New forecast layout! Learn more

10-Day Weather Forecast

Advertisements
Track Severe Weather on mobile